Terminal Aerodrome Forecast
Issued by NWS Shreveport, LA

Home | Current Version | Previous Version | Text Only | Print | Product List | Glossary On
Versions: 1 2 3 4 5 6 7 8 9 10 11 12 13 14 15 16 17 18 19
615
FTUS44 KSHV 200301 AAA
TAFTXK
TAF AMD
KTXK 200301Z 2003/2024 18004KT P6SM SCT015
      TEMPO 2003/2006 3SM BR BKN015
     FM200600 20007KT 5SM BR OVC010
      TEMPO 2008/2012 1SM BR OVC001
     FM201200 20008KT 1SM BR OVC001
      TEMPO 2012/2016 P6SM NSW BKN005
     FM201600 21010KT P6SM BKN015
     FM201800 22012G18KT P6SM SCT025 SCT250=

USA.gov is the U.S. government's official web portal to all federal, state and local government web resources and services.